createdAt,value
2023-04-09T00:00:17.723Z,12.58
2023-04-09T00:03:09.910Z,12.51
2023-04-09T00:05:59.226Z,12.53
2023-04-09T00:08:48.567Z,12.52
2023-04-09T00:11:41.206Z,12.52
2023-04-09T00:14:30.780Z,12.40
2023-04-09T00:17:20.012Z,12.43
2023-04-09T00:20:10.622Z,12.43
2023-04-09T00:22:59.810Z,12.32
2023-04-09T00:25:49.080Z,12.45
2023-04-09T00:28:40.255Z,12.47
2023-04-09T00:31:29.472Z,12.47
2023-04-09T00:34:19.045Z,12.42
2023-04-09T00:37:08.480Z,12.41
2023-04-09T00:39:57.638Z,12.36
2023-04-09T00:42:47.048Z,12.32
2023-04-09T00:45:38.100Z,12.33
2023-04-09T00:48:27.947Z,12.30
2023-04-09T00:51:17.185Z,12.37
2023-04-09T00:54:06.620Z,12.32
2023-04-09T00:56:57.469Z,12.32
2023-04-09T00:59:47.096Z,12.15
2023-04-09T01:02:38.001Z,12.32
2023-04-09T01:05:39.788Z,12.30
2023-04-09T01:08:40.072Z,12.29
2023-04-09T01:11:37.660Z,12.11
2023-04-09T01:14:36.168Z,12.18
2023-04-09T01:17:39.380Z,12.12
2023-04-09T01:20:40.754Z,12.21
2023-04-09T01:23:45.045Z,12.10
2023-04-09T01:26:54.362Z,12.10
2023-04-09T01:29:52.971Z,12.16
2023-04-09T01:32:43.609Z,12.26
2023-04-09T01:35:33.199Z,12.24
2023-04-09T01:38:24.288Z,12.17
2023-04-09T01:41:19.097Z,12.25
2023-04-09T01:44:10.713Z,12.27
2023-04-09T01:47:02.737Z,12.35
2023-04-09T01:49:52.889Z,12.38
2023-04-09T01:52:42.379Z,12.37
2023-04-09T01:55:31.658Z,12.33
2023-04-09T01:58:20.844Z,12.33
2023-04-09T02:01:15.720Z,12.32
2023-04-09T02:04:12.211Z,12.24
2023-04-09T02:07:11.469Z,12.32
2023-04-09T02:10:02.375Z,12.26
2023-04-09T02:12:53.815Z,12.20
2023-04-09T02:15:44.403Z,12.19
2023-04-09T02:18:33.703Z,12.17
2023-04-09T02:21:24.657Z,12.20
2023-04-09T02:24:13.868Z,12.19
2023-04-09T02:27:03.309Z,12.15
2023-04-09T02:29:52.626Z,12.16
2023-04-09T02:32:41.993Z,12.08
2023-04-09T02:35:31.301Z,12.05
2023-04-09T02:38:22.252Z,12.06
2023-04-09T02:41:12.024Z,11.93
2023-04-09T02:44:01.305Z,12.01
2023-04-09T02:46:53.433Z,11.97
2023-04-09T02:49:42.647Z,11.99
2023-04-09T02:52:31.792Z,11.95
2023-04-09T02:55:23.324Z,12.00
2023-04-09T02:58:12.481Z,11.99
2023-04-09T03:01:01.845Z,11.94
2023-04-09T03:03:51.931Z,11.93
2023-04-09T03:06:41.318Z,11.97
2023-04-09T03:09:30.911Z,11.91
2023-04-09T03:12:21.598Z,11.99
2023-04-09T03:15:12.191Z,11.95
2023-04-09T03:18:01.529Z,11.92
2023-04-09T03:20:50.917Z,11.89
2023-04-09T03:23:40.200Z,11.92
2023-04-09T03:26:36.143Z,11.95
2023-04-09T03:29:28.827Z,11.95
2023-04-09T03:32:19.170Z,11.94
2023-04-09T03:35:09.694Z,11.95
2023-04-09T03:38:01.445Z,11.94
2023-04-09T03:40:50.739Z,11.91
2023-04-09T03:43:39.986Z,11.90
2023-04-09T03:46:31.657Z,11.87
2023-04-09T03:49:22.889Z,11.91
2023-04-09T03:52:12.674Z,11.80
2023-04-09T03:55:07.729Z,11.84
2023-04-09T03:57:57.041Z,11.89
2023-04-09T04:00:51.179Z,11.90
2023-04-09T04:04:08.519Z,11.84
2023-04-09T04:07:04.384Z,11.91
2023-04-09T04:10:00.180Z,11.88
2023-04-09T04:12:49.835Z,11.78
2023-04-09T04:15:55.395Z,11.87
2023-04-09T04:18:46.130Z,11.89
2023-04-09T04:21:37.196Z,11.82
2023-04-09T04:24:26.601Z,11.77
2023-04-09T04:27:16.056Z,11.72
2023-04-09T04:30:06.599Z,11.71
2023-04-09T04:33:06.501Z,11.74
2023-04-09T04:36:08.146Z,11.74
2023-04-09T04:39:02.966Z,11.72
2023-04-09T04:42:13.020Z,11.71
2023-04-09T04:45:02.504Z,11.60
2023-04-09T04:48:02.919Z,11.69
2023-04-09T04:50:58.087Z,11.75
2023-04-09T04:53:50.660Z,11.64
2023-04-09T04:56:42.317Z,11.79
2023-04-09T04:59:41.640Z,11.81
2023-04-09T05:02:33.624Z,11.70
2023-04-09T05:05:37.723Z,11.73
2023-04-09T05:08:26.956Z,11.69
2023-04-09T05:11:18.081Z,11.80
2023-04-09T05:14:13.218Z,11.83
2023-04-09T05:17:03.238Z,11.82
2023-04-09T05:20:03.037Z,11.74
2023-04-09T05:23:05.167Z,11.78
2023-04-09T05:26:00.261Z,11.76
2023-04-09T05:29:04.548Z,11.72
2023-04-09T05:31:56.814Z,11.69
2023-04-09T05:35:03.905Z,11.68
2023-04-09T05:37:57.018Z,11.72
2023-04-09T05:40:46.574Z,11.68
2023-04-09T05:43:36.669Z,11.71
2023-04-09T05:46:29.206Z,11.71
2023-04-09T05:49:20.520Z,11.71
2023-04-09T05:52:13.329Z,11.71
2023-04-09T05:55:03.674Z,11.72
2023-04-09T05:58:06.423Z,11.73
2023-04-09T06:00:58.048Z,11.75
2023-04-09T06:03:47.307Z,11.76
2023-04-09T06:06:40.239Z,11.75
2023-04-09T06:09:29.479Z,11.84
2023-04-09T06:12:18.671Z,11.83
2023-04-09T06:15:08.968Z,11.91
2023-04-09T06:17:59.481Z,11.93
2023-04-09T06:20:48.731Z,11.91
2023-04-09T06:23:39.541Z,12.00
2023-04-09T06:26:29.010Z,12.05
2023-04-09T06:29:18.244Z,12.14
2023-04-09T06:32:08.061Z,12.23
2023-04-09T06:34:57.652Z,12.19
2023-04-09T06:37:46.782Z,12.29
2023-04-09T06:40:39.257Z,12.19
2023-04-09T06:43:28.530Z,12.19
2023-04-09T06:46:20.390Z,12.12
2023-04-09T06:49:09.925Z,12.14
2023-04-09T06:51:59.835Z,12.21
2023-04-09T06:54:49.085Z,12.14
2023-04-09T06:57:40.278Z,12.14
2023-04-09T07:00:29.619Z,12.04
2023-04-09T07:03:19.060Z,12.02
2023-04-09T07:06:08.382Z,12.07
2023-04-09T07:08:57.615Z,12.06
2023-04-09T07:11:46.777Z,12.20
2023-04-09T07:14:37.370Z,12.20
2023-04-09T07:17:26.755Z,12.21
2023-04-09T07:20:16.173Z,12.26
2023-04-09T07:23:05.313Z,12.29
2023-04-09T07:25:54.601Z,12.35
2023-04-09T07:28:43.771Z,12.44
2023-04-09T07:31:35.895Z,12.54
2023-04-09T07:34:25.506Z,12.56
2023-04-09T07:37:15.122Z,12.52
2023-04-09T07:40:04.981Z,12.59
2023-04-09T07:42:55.787Z,12.66
2023-04-09T07:45:46.153Z,12.70
2023-04-09T07:48:36.866Z,12.83
2023-04-09T07:51:27.817Z,12.92
2023-04-09T07:54:17.208Z,13.06
2023-04-09T07:57:06.875Z,13.10
2023-04-09T07:59:56.265Z,12.98
2023-04-09T08:02:45.786Z,13.06
2023-04-09T08:05:38.213Z,13.38
2023-04-09T08:08:27.629Z,13.40
2023-04-09T08:11:18.106Z,13.45
2023-04-09T08:14:07.354Z,13.46
2023-04-09T08:16:56.610Z,13.40
2023-04-09T08:19:45.949Z,13.55
2023-04-09T08:22:36.978Z,13.63
2023-04-09T08:25:26.364Z,13.81
2023-04-09T08:28:15.611Z,13.90
2023-04-09T08:31:04.860Z,13.99
2023-04-09T08:33:54.067Z,14.05
2023-04-09T08:36:46.508Z,14.11
2023-04-09T08:39:37.509Z,14.12
2023-04-09T08:42:27.269Z,14.18
2023-04-09T08:45:17.194Z,14.25
2023-04-09T08:48:10.189Z,14.28
2023-04-09T08:50:59.214Z,14.35
2023-04-09T08:53:53.401Z,14.25
2023-04-09T08:56:44.196Z,14.22
2023-04-09T08:59:37.188Z,14.25
2023-04-09T09:02:26.310Z,14.32
2023-04-09T09:05:15.865Z,14.29
2023-04-09T09:08:05.282Z,14.40
2023-04-09T09:10:54.610Z,14.43
2023-04-09T09:13:45.718Z,14.43
2023-04-09T09:16:40.383Z,14.41
2023-04-09T09:19:33.630Z,14.48
2023-04-09T09:22:22.857Z,14.39
2023-04-09T09:25:14.968Z,14.50
2023-04-09T09:28:10.642Z,14.45
2023-04-09T09:31:10.980Z,14.51
2023-04-09T09:34:09.714Z,14.61
2023-04-09T09:36:58.991Z,14.55
2023-04-09T09:39:48.120Z,14.59
2023-04-09T09:42:37.328Z,14.66
2023-04-09T09:45:26.931Z,14.47
2023-04-09T09:48:17.606Z,14.63
2023-04-09T09:51:12.005Z,14.65
2023-04-09T09:54:02.503Z,14.62
2023-04-09T09:56:53.958Z,14.58
2023-04-09T09:59:53.504Z,14.52
2023-04-09T10:02:49.833Z,14.38
2023-04-09T10:05:42.016Z,14.44
2023-04-09T10:08:34.919Z,14.32
2023-04-09T10:11:24.740Z,14.32
2023-04-09T10:14:14.938Z,14.31
2023-04-09T10:17:04.787Z,14.37
2023-04-09T10:20:02.887Z,14.34
2023-04-09T10:22:54.877Z,14.43
2023-04-09T10:25:44.468Z,14.44
2023-04-09T10:28:34.224Z,14.45
2023-04-09T10:31:23.632Z,14.46
2023-04-09T10:34:16.183Z,14.52
2023-04-09T10:37:06.682Z,14.62
2023-04-09T10:39:58.835Z,14.75
2023-04-09T10:42:49.195Z,14.79
2023-04-09T10:45:43.216Z,14.87
2023-04-09T10:48:35.958Z,14.94
2023-04-09T10:51:27.283Z,14.99
2023-04-09T10:54:47.153Z,15.00
2023-04-09T10:57:37.750Z,14.98
2023-04-09T11:00:26.981Z,14.94
2023-04-09T11:03:28.003Z,14.86
2023-04-09T11:06:21.526Z,14.95
2023-04-09T11:09:10.763Z,15.02
2023-04-09T11:11:59.896Z,14.99
2023-04-09T11:14:50.502Z,15.05
2023-04-09T11:17:39.751Z,15.10
2023-04-09T11:20:30.871Z,15.09
2023-04-09T11:23:20.179Z,15.13
2023-04-09T11:26:11.308Z,15.15
2023-04-09T11:29:05.843Z,15.02
2023-04-09T11:31:56.681Z,14.95
2023-04-09T11:34:45.864Z,14.92
2023-04-09T11:37:38.479Z,14.96
2023-04-09T11:40:29.290Z,14.90
2023-04-09T11:43:21.152Z,14.90
2023-04-09T11:46:11.222Z,14.85
2023-04-09T11:49:02.061Z,14.79
2023-04-09T11:51:51.435Z,14.73
2023-04-09T11:54:40.836Z,14.42
2023-04-09T11:57:43.658Z,14.68
2023-04-09T12:00:34.551Z,14.50
2023-04-09T12:03:32.921Z,14.45
2023-04-09T12:06:24.931Z,14.44
2023-04-09T12:09:14.344Z,14.54
2023-04-09T12:12:03.750Z,14.58
2023-04-09T12:14:53.926Z,14.68
2023-04-09T12:17:43.173Z,14.59
2023-04-09T12:20:35.729Z,14.62
2023-04-09T12:23:26.318Z,14.72
2023-04-09T12:26:15.907Z,14.72
2023-04-09T12:29:05.188Z,14.61
2023-04-09T12:31:55.016Z,14.69
2023-04-09T12:34:44.274Z,14.72
2023-04-09T12:37:33.440Z,14.74
2023-04-09T12:40:24.241Z,14.77
2023-04-09T12:43:13.384Z,14.84
2023-04-09T12:46:02.709Z,14.90
2023-04-09T12:48:51.991Z,14.91
2023-04-09T12:51:41.814Z,14.98
2023-04-09T12:54:31.058Z,14.93
2023-04-09T12:57:21.699Z,14.83
2023-04-09T13:00:12.299Z,14.88
2023-04-09T13:03:01.982Z,14.99
2023-04-09T13:05:51.556Z,15.02
2023-04-09T13:08:40.851Z,15.06
2023-04-09T13:11:30.139Z,14.97
2023-04-09T13:14:20.851Z,15.08
2023-04-09T13:17:10.211Z,15.19
2023-04-09T13:19:59.420Z,15.22
2023-04-09T13:22:49.294Z,15.15
2023-04-09T13:25:38.620Z,15.27
2023-04-09T13:28:28.033Z,15.32
2023-04-09T13:31:18.684Z,15.23
2023-04-09T13:34:07.942Z,15.22
2023-04-09T13:36:57.331Z,15.21
2023-04-09T13:39:46.567Z,15.24
2023-04-09T13:42:37.529Z,15.14
2023-04-09T13:45:27.046Z,15.14
2023-04-09T13:48:17.720Z,15.16
2023-04-09T13:51:08.238Z,15.13
2023-04-09T13:53:57.810Z,15.16
2023-04-09T13:56:47.282Z,15.09
2023-04-09T13:59:38.167Z,15.15
2023-04-09T14:02:28.159Z,15.02
2023-04-09T14:05:19.039Z,14.91
2023-04-09T14:08:08.360Z,14.97
2023-04-09T14:10:57.880Z,15.02
2023-04-09T14:13:47.168Z,15.05
2023-04-09T14:16:36.631Z,15.20
2023-04-09T14:19:25.945Z,15.19
2023-04-09T14:22:16.570Z,15.29
2023-04-09T14:25:07.275Z,15.31
2023-04-09T14:27:57.006Z,15.45
2023-04-09T14:30:47.336Z,15.37
2023-04-09T14:33:36.806Z,15.50
2023-04-09T14:36:27.107Z,15.54
2023-04-09T14:39:17.920Z,15.60
2023-04-09T14:42:07.234Z,15.60
2023-04-09T14:44:56.447Z,15.61
2023-04-09T14:47:45.746Z,15.71
2023-04-09T14:50:35.534Z,15.69
2023-04-09T14:53:25.409Z,15.69
2023-04-09T14:56:16.074Z,15.72
2023-04-09T14:59:05.561Z,15.47
2023-04-09T15:01:54.891Z,15.50
2023-04-09T15:04:44.517Z,15.45
2023-04-09T15:07:34.025Z,15.48
2023-04-09T15:10:23.367Z,15.42
2023-04-09T15:13:13.985Z,15.43
2023-04-09T15:16:03.294Z,15.41
2023-04-09T15:18:53.120Z,15.40
2023-04-09T15:21:42.505Z,15.45
2023-04-09T15:24:31.677Z,15.53
2023-04-09T15:27:21.102Z,15.55
2023-04-09T15:30:12.281Z,15.55
2023-04-09T15:33:01.698Z,15.54
2023-04-09T15:35:51.033Z,15.57
2023-04-09T15:38:40.375Z,15.50
2023-04-09T15:41:32.134Z,15.60
2023-04-09T15:44:21.475Z,15.53
2023-04-09T15:47:12.114Z,15.55
2023-04-09T15:50:01.326Z,15.46
2023-04-09T15:52:50.593Z,15.59
2023-04-09T15:55:39.846Z,15.70
2023-04-09T15:58:29.015Z,15.81
2023-04-09T16:01:19.033Z,15.92
2023-04-09T16:04:10.619Z,16.03
2023-04-09T16:06:59.981Z,16.08
2023-04-09T16:09:49.613Z,16.11
2023-04-09T16:12:39.098Z,16.15
2023-04-09T16:15:28.921Z,16.21
2023-04-09T16:18:18.546Z,16.11
2023-04-09T16:21:09.575Z,16.10
2023-04-09T16:23:58.794Z,16.06
2023-04-09T16:26:48.054Z,16.07
2023-04-09T16:29:37.283Z,16.11
2023-04-09T16:32:26.689Z,16.16
2023-04-09T16:35:16.381Z,16.23
2023-04-09T16:38:08.022Z,16.25
2023-04-09T16:40:57.718Z,16.27
2023-04-09T16:43:50.221Z,16.31
2023-04-09T16:46:39.521Z,16.31
2023-04-09T16:49:28.801Z,16.25
2023-04-09T16:52:18.265Z,16.19
2023-04-09T16:55:10.377Z,16.19
2023-04-09T16:57:59.663Z,16.11
2023-04-09T17:00:50.714Z,16.12
2023-04-09T17:03:41.438Z,15.95
2023-04-09T17:06:31.081Z,15.88
2023-04-09T17:09:20.434Z,15.84
2023-04-09T17:12:11.456Z,15.76
2023-04-09T17:15:00.791Z,15.70
2023-04-09T17:17:53.122Z,15.79
2023-04-09T17:20:42.451Z,15.74
2023-04-09T17:23:31.802Z,15.69
2023-04-09T17:26:21.017Z,15.66
2023-04-09T17:29:11.796Z,15.64
2023-04-09T17:32:01.017Z,15.57
2023-04-09T17:34:50.674Z,15.46
2023-04-09T17:37:40.179Z,15.28
2023-04-09T17:40:29.484Z,15.13
2023-04-09T17:43:18.734Z,15.03
2023-04-09T17:46:09.795Z,14.93
2023-04-09T17:48:59.028Z,14.83
2023-04-09T17:51:48.856Z,14.74
2023-04-09T17:54:38.770Z,14.68
2023-04-09T17:57:28.196Z,14.72
2023-04-09T18:00:17.879Z,14.73
2023-04-09T18:03:12.334Z,14.70
2023-04-09T18:06:01.840Z,14.65
2023-04-09T18:08:52.609Z,14.68
2023-04-09T18:11:42.681Z,14.57
2023-04-09T18:14:32.631Z,14.64
2023-04-09T18:17:21.957Z,14.65
2023-04-09T18:20:15.651Z,14.69
2023-04-09T18:23:04.882Z,14.67
2023-04-09T18:25:54.180Z,14.67
2023-04-09T18:28:43.389Z,14.68
2023-04-09T18:31:32.725Z,14.65
2023-04-09T18:34:22.390Z,14.55
2023-04-09T18:37:13.217Z,14.55
2023-04-09T18:40:02.972Z,14.43
2023-04-09T18:42:53.012Z,14.39
2023-04-09T18:45:43.051Z,14.33
2023-04-09T18:48:33.039Z,14.32
2023-04-09T18:51:22.515Z,14.39
2023-04-09T18:54:13.147Z,14.37
2023-04-09T18:57:04.189Z,14.32
2023-04-09T18:59:53.860Z,14.38
2023-04-09T19:02:43.310Z,14.32
2023-04-09T19:05:33.266Z,14.14
2023-04-09T19:08:23.318Z,14.26
2023-04-09T19:11:14.474Z,14.16
2023-04-09T19:14:04.297Z,14.25
2023-04-09T19:16:53.556Z,14.14
2023-04-09T19:19:42.865Z,14.19
2023-04-09T19:22:32.036Z,14.13
2023-04-09T19:25:22.914Z,14.17
2023-04-09T19:28:13.604Z,14.24
2023-04-09T19:31:03.569Z,14.19
2023-04-09T19:33:53.134Z,14.17
2023-04-09T19:36:42.375Z,14.12
2023-04-09T19:39:31.653Z,14.27
2023-04-09T19:42:21.012Z,14.29
2023-04-09T19:45:13.532Z,14.31
2023-04-09T19:48:02.787Z,14.34
2023-04-09T19:50:52.777Z,14.25
2023-04-09T19:56:33.001Z,14.11
2023-04-09T19:59:23.424Z,14.13
2023-04-09T20:02:14.158Z,14.09
2023-04-09T20:05:03.628Z,14.11
2023-04-09T20:07:53.830Z,14.13
2023-04-09T20:10:45.079Z,14.17
2023-04-09T20:13:34.376Z,14.15
2023-04-09T20:16:23.651Z,14.13
2023-04-09T20:19:14.447Z,14.14
2023-04-09T20:22:03.731Z,14.17
2023-04-09T20:24:53.653Z,14.16
2023-04-09T20:27:43.373Z,14.19
2023-04-09T20:30:33.162Z,14.19
2023-04-09T20:33:22.612Z,14.15
2023-04-09T20:36:20.853Z,14.13
2023-04-09T20:39:10.284Z,14.09
2023-04-09T20:41:59.905Z,14.19
2023-04-09T20:44:49.833Z,14.15
2023-04-09T20:47:39.144Z,14.04
2023-04-09T20:50:28.936Z,14.01
2023-04-09T20:53:19.875Z,13.95
2023-04-09T20:56:09.582Z,14.07
2023-04-09T20:58:58.911Z,14.09
2023-04-09T21:01:48.535Z,14.08
2023-04-09T21:04:37.936Z,14.06
2023-04-09T21:07:27.312Z,14.00
2023-04-09T21:10:18.204Z,13.97
2023-04-09T21:13:07.615Z,13.91
2023-04-09T21:15:58.297Z,13.92
2023-04-09T21:18:47.586Z,13.83
2023-04-09T21:21:37.992Z,13.89
2023-04-09T21:24:28.008Z,13.81
2023-04-09T21:27:18.649Z,13.72
2023-04-09T21:30:09.727Z,13.73
2023-04-09T21:33:01.137Z,13.61
2023-04-09T21:35:54.532Z,13.55
2023-04-09T21:38:44.248Z,13.47
2023-04-09T21:41:34.167Z,13.42
2023-04-09T21:44:25.000Z,13.42
2023-04-09T21:47:15.471Z,13.41
2023-04-09T21:50:05.835Z,13.41
2023-04-09T21:52:55.058Z,13.34
2023-04-09T21:55:44.321Z,13.43
2023-04-09T21:58:33.731Z,13.43
2023-04-09T22:01:29.182Z,13.46
2023-04-09T22:04:18.920Z,13.44
2023-04-09T22:07:08.183Z,13.47
2023-04-09T22:09:58.851Z,13.56
2023-04-09T22:12:50.773Z,13.44
2023-04-09T22:15:40.135Z,13.51
2023-04-09T22:18:30.768Z,13.52
2023-04-09T22:21:22.948Z,13.48
2023-04-09T22:24:14.157Z,13.52
2023-04-09T22:27:03.450Z,13.39
2023-04-09T22:29:52.762Z,13.52
2023-04-09T22:32:42.172Z,13.51
2023-04-09T22:35:35.027Z,13.42
2023-04-09T22:38:24.437Z,13.50
2023-04-09T22:41:13.702Z,13.46
2023-04-09T22:44:02.909Z,13.43
2023-04-09T22:46:55.488Z,13.45
2023-04-09T22:49:45.019Z,13.43
2023-04-09T22:52:36.071Z,13.42
2023-04-09T22:55:25.717Z,13.43
2023-04-09T22:58:19.022Z,13.41
2023-04-09T23:01:10.643Z,13.39
2023-04-09T23:04:00.565Z,13.32
2023-04-09T23:06:50.081Z,13.38
2023-04-09T23:09:41.043Z,13.43
2023-04-09T23:12:33.258Z,13.54
2023-04-09T23:15:23.179Z,13.55
2023-04-09T23:18:22.178Z,13.48
2023-04-09T23:21:12.726Z,13.52
2023-04-09T23:24:05.450Z,13.42
2023-04-09T23:26:57.436Z,13.36
2023-04-09T23:29:46.852Z,13.32
2023-04-09T23:32:36.967Z,13.25
2023-04-09T23:35:26.393Z,13.12
2023-04-09T23:38:18.922Z,13.15
2023-04-09T23:41:10.815Z,12.99
2023-04-09T23:44:06.139Z,13.01
2023-04-09T23:46:57.187Z,13.02
2023-04-09T23:49:49.732Z,13.00
2023-04-09T23:52:40.053Z,12.95
2023-04-09T23:55:29.446Z,12.96
2023-04-09T23:58:18.947Z,12.93
